Time;durP1;ratioP1;P1;durP2;ratioP2;P2;SDS_P1;SDS_P2;PMS_P1;PMS_P2;Temp;Humidity;BMP_temperature;BMP_pressure;BME280_temperature;BME280_humidity;BME280_pressure;Samples;Min_cycle;Max_cycle;Signal;HPM_P1;HPM_P2
2024/03/06 00:00:45;;;;;;;6.10;3.45;;;;;;;1.20;100.00;102685.84;5059547;28;20025;-73
2024/03/06 00:03:11;;;;;;;5.97;3.80;;;;;;;1.17;100.00;102686.03;5058469;28;20033;-68
2024/03/06 00:05:36;;;;;;;4.50;3.90;;;;;;;1.18;100.00;102700.97;5057917;28;20052;-71
2024/03/06 00:08:03;;;;;;;6.43;3.95;;;;;;;1.13;100.00;102685.34;5060205;28;20109;-70
2024/03/06 00:10:29;;;;;;;6.53;4.20;;;;;;;1.17;100.00;102696.63;5059416;28;20017;-70
2024/03/06 00:12:54;;;;;;;5.25;4.13;;;;;;;1.16;100.00;102686.97;5060573;28;20035;-69
2024/03/06 00:15:20;;;;;;;5.68;4.00;;;;;;;1.18;100.00;102687.72;5066410;28;20033;-70
2024/03/06 00:17:45;;;;;;;5.90;4.10;;;;;;;1.14;100.00;102704.78;5065619;28;20476;-69
2024/03/06 00:20:11;;;;;;;5.82;4.22;;;;;;;1.17;100.00;102700.13;5064954;28;20029;-72
2024/03/06 00:22:36;;;;;;;5.47;3.88;;;;;;;1.15;100.00;102695.88;5065404;28;20037;-68
2024/03/06 00:25:02;;;;;;;7.18;4.45;;;;;;;1.18;100.00;102698.34;5047800;28;20033;-70
2024/03/06 00:27:28;;;;;;;6.30;4.15;;;;;;;1.23;100.00;102698.94;5064385;28;20083;-69
2024/03/06 00:29:53;;;;;;;6.53;4.25;;;;;;;1.21;100.00;102692.00;5063491;28;20032;-70
2024/03/06 00:32:19;;;;;;;6.28;4.45;;;;;;;1.12;100.00;102699.53;5047559;28;20442;-74
2024/03/06 00:34:44;;;;;;;6.80;4.15;;;;;;;1.15;100.00;102703.81;5064270;28;20033;-69
2024/03/06 00:37:10;;;;;;;6.03;4.60;;;;;;;1.01;100.00;102678.13;5064610;28;20013;-69
2024/03/06 00:39:36;;;;;;;5.95;4.40;;;;;;;1.15;100.00;102694.06;5062000;28;20031;-69
2024/03/06 00:42:01;;;;;;;5.63;4.88;;;;;;;1.15;100.00;102687.91;5059536;28;20033;-69
2024/03/06 00:44:27;;;;;;;7.18;4.13;;;;;;;1.12;100.00;102680.13;5062548;28;20090;-69
2024/03/06 00:46:52;;;;;;;8.38;4.88;;;;;;;1.12;100.00;102693.38;5062849;28;20021;-69
2024/03/06 00:49:18;;;;;;;9.70;4.75;;;;;;;1.11;100.00;102691.69;5060911;28;20025;-69
2024/03/06 00:51:44;;;;;;;7.43;5.03;;;;;;;1.11;100.00;102687.25;5057048;28;20045;-69
2024/03/06 00:54:09;;;;;;;6.07;4.70;;;;;;;1.10;100.00;102688.19;5043421;28;20042;-69
2024/03/06 00:56:38;;;;;;;8.30;4.70;;;;;;;1.14;100.00;102694.16;5061606;28;20079;-69
2024/03/06 00:59:04;;;;;;;7.05;4.28;;;;;;;1.16;100.00;102684.34;5062982;28;20049;-69
2024/03/06 01:01:29;;;;;;;8.95;4.40;;;;;;;1.11;100.00;102694.34;5062488;28;20086;-69
2024/03/06 01:03:55;;;;;;;4.88;4.15;;;;;;;1.13;100.00;102689.81;5061042;28;20040;-70
2024/03/06 01:06:21;;;;;;;5.97;4.50;;;;;;;0.98;100.00;102659.75;5061787;28;20029;-69
2024/03/06 01:08:46;;;;;;;7.32;4.32;;;;;;;1.13;100.00;102692.47;5044252;28;20021;-71
2024/03/06 01:11:14;;;;;;;6.78;4.40;;;;;;;1.11;100.00;102675.78;5062456;28;20104;-71
2024/03/06 01:13:40;;;;;;;6.50;4.30;;;;;;;1.11;100.00;102687.25;5062529;28;20032;-74
2024/03/06 01:16:06;;;;;;;9.38;4.80;;;;;;;1.12;100.00;102688.94;5065800;28;20059;-69
2024/03/06 01:18:31;;;;;;;6.20;4.32;;;;;;;1.15;100.00;102682.59;5044911;28;20056;-71
2024/03/06 01:20:57;;;;;;;6.72;4.68;;;;;;;1.10;100.00;102674.09;5040439;28;20205;-70
2024/03/06 01:23:22;;;;;;;6.07;4.13;;;;;;;1.12;100.00;102682.78;5040906;28;20033;-72
2024/03/06 01:25:48;;;;;;;5.50;3.97;;;;;;;1.04;100.00;102663.84;5040426;28;20029;-69
2024/03/06 01:28:14;;;;;;;7.85;4.72;;;;;;;1.01;100.00;102656.06;5040850;28;20488;-70
2024/03/06 01:30:39;;;;;;;6.45;4.38;;;;;;;1.13;100.00;102679.22;5041892;28;20099;-70
2024/03/06 01:33:05;;;;;;;6.55;4.00;;;;;;;0.98;100.00;102643.84;5042363;28;20524;-69
2024/03/06 01:35:30;;;;;;;8.82;4.30;;;;;;;1.15;100.00;102672.84;5039970;28;20105;-70
2024/03/06 01:37:56;;;;;;;8.80;4.20;;;;;;;1.14;100.00;102673.81;5040528;28;20586;-69
2024/03/06 01:40:21;;;;;;;7.90;4.70;;;;;;;1.16;100.00;102669.28;5039762;28;20026;-69
2024/03/06 01:42:48;;;;;;;9.93;4.28;;;;;;;1.17;100.00;102675.41;5038735;28;20056;-70
2024/03/06 01:45:14;;;;;;;6.90;4.18;;;;;;;1.15;100.00;102672.00;5040203;28;20130;-73
2024/03/06 01:47:39;;;;;;;4.85;4.20;;;;;;;1.11;100.00;102665.19;5038309;28;20060;-71
2024/03/06 01:50:08;;;;;;;7.50;4.25;;;;;;;1.14;100.00;102667.66;5039181;28;20060;-69
2024/03/06 01:52:35;;;;;;;6.78;4.65;;;;;;;1.14;100.00;102668.50;5041238;28;20090;-69
2024/03/06 01:55:01;;;;;;;5.93;4.00;;;;;;;1.15;100.00;102664.03;5041461;28;20025;-69
2024/03/06 01:57:27;;;;;;;7.70;4.55;;;;;;;1.14;100.00;102665.00;5040578;28;20069;-69
2024/03/06 01:59:53;;;;;;;6.35;4.68;;;;;;;1.15;100.00;102666.69;5062254;28;20055;-69
2024/03/06 02:02:18;;;;;;;6.15;4.18;;;;;;;1.17;100.00;102667.47;5061699;28;20016;-69
2024/03/06 02:04:44;;;;;;;8.27;4.38;;;;;;;1.15;100.00;102672.00;5044133;28;20485;-68
2024/03/06 02:07:13;;;;;;;7.00;4.20;;;;;;;1.11;100.00;102660.72;5061061;28;20029;-71
2024/03/06 02:09:39;;;;;;;5.78;3.92;;;;;;;1.12;100.00;102656.28;5061251;28;20035;-69
2024/03/06 02:12:08;;;;;;;6.00;4.50;;;;;;;1.14;100.00;102657.91;5060765;28;20103;-70
2024/03/06 02:14:37;;;;;;;6.68;4.35;;;;;;;1.14;100.00;102659.69;5061930;28;20084;-72
2024/03/06 02:17:02;;;;;;;6.47;4.30;;;;;;;1.11;100.00;102649.28;5062210;28;20086;-69
2024/03/06 02:19:39;;;;;;;5.15;3.90;;;;;;;1.14;100.00;102649.09;5060842;28;20492;-69
2024/03/06 02:22:06;;;;;;;6.20;4.28;;;;;;;1.09;100.00;102641.44;5059541;28;20067;-70
2024/03/06 02:24:31;;;;;;;5.40;3.65;;;;;;;1.10;100.00;102660.84;5057920;28;20033;-70
2024/03/06 02:26:56;;;;;;;7.55;3.80;;;;;;;1.13;100.00;102653.53;5059768;28;20036;-70
2024/03/06 02:29:25;;;;;;;6.55;3.60;;;;;;;1.04;100.00;102639.97;5059862;28;20040;-69
2024/03/06 02:31:51;;;;;;;4.15;3.60;;;;;;;1.11;100.00;102650.13;5059530;28;20051;-70
2024/03/06 02:34:16;;;;;;;6.90;3.80;;;;;;;1.16;100.00;102644.56;5060720;28;20029;-69
2024/03/06 02:36:42;;;;;;;5.95;3.38;;;;;;;1.07;100.00;102653.06;5059847;28;20039;-69
2024/03/06 02:39:08;;;;;;;6.30;3.20;;;;;;;1.06;100.00;102651.34;5059967;28;20029;-70
2024/03/06 02:41:37;;;;;;;5.78;3.22;;;;;;;1.07;100.00;102647.75;5058967;28;20060;-69
2024/03/06 02:44:03;;;;;;;4.38;3.22;;;;;;;1.12;100.00;102667.72;5041912;28;20086;-70
2024/03/06 02:46:29;;;;;;;5.50;3.45;;;;;;;1.08;100.00;102662.72;5059076;28;20032;-73
2024/03/06 02:48:55;;;;;;;5.68;2.95;;;;;;;0.91;100.00;102637.22;5057871;28;20032;-71
2024/03/06 02:51:21;;;;;;;4.60;2.90;;;;;;;1.11;100.00;102659.88;5059102;28;20035;-71
2024/03/06 02:53:48;;;;;;;4.65;2.83;;;;;;;1.04;100.00;102651.44;5059961;28;20119;-70
2024/03/06 02:56:17;;;;;;;5.55;2.92;;;;;;;1.14;100.00;102659.69;5058822;28;20025;-69
2024/03/06 02:58:43;;;;;;;6.28;3.20;;;;;;;1.08;100.00;102657.41;5060415;28;20099;-69
2024/03/06 03:01:09;;;;;;;8.68;3.10;;;;;;;1.10;100.00;102659.03;5060523;28;20060;-69
2024/03/06 03:03:34;;;;;;;4.43;3.15;;;;;;;1.13;100.00;102660.66;5060646;28;20044;-69
2024/03/06 03:06:00;;;;;;;5.10;2.97;;;;;;;1.06;100.00;102661.94;5042960;28;20492;-71
2024/03/06 03:08:26;;;;;;;4.75;2.95;;;;;;;1.05;100.00;102655.78;5059080;28;20040;-70
2024/03/06 03:10:51;;;;;;;5.55;2.80;;;;;;;1.07;100.00;102653.06;5042470;28;20022;-73
2024/03/06 03:13:17;;;;;;;5.82;3.50;;;;;;;1.09;100.00;102661.75;5060940;28;20442;-70
2024/03/06 03:15:42;;;;;;;7.30;3.40;;;;;;;1.04;100.00;102658.53;5042410;28;20035;-71
2024/03/06 03:18:08;;;;;;;4.65;2.80;;;;;;;1.04;100.00;102653.25;5058845;28;20029;-69
2024/03/06 03:20:34;;;;;;;5.07;3.22;;;;;;;1.02;100.00;102650.66;5060259;28;20039;-70
2024/03/06 03:23:01;;;;;;;5.25;3.30;;;;;;;1.00;100.00;102657.03;5060271;28;20075;-70
2024/03/06 03:25:27;;;;;;;4.57;3.50;;;;;;;1.03;100.00;102667.44;5059690;28;20036;-71
2024/03/06 03:27:52;;;;;;;5.38;2.90;;;;;;;0.99;100.00;102671.19;5060360;28;20036;-72
2024/03/06 03:30:21;;;;;;;5.53;3.03;;;;;;;1.07;100.00;102668.97;5058898;28;20029;-71
2024/03/06 03:32:47;;;;;;;4.25;2.97;;;;;;;1.06;100.00;102665.47;5059775;28;20029;-70
2024/03/06 03:35:13;;;;;;;5.53;3.30;;;;;;;1.06;100.00;102661.94;5042349;28;20036;-70
2024/03/06 03:37:38;;;;;;;5.00;3.13;;;;;;;1.04;100.00;102655.91;5060330;28;20037;-72
2024/03/06 03:40:06;;;;;;;5.78;3.38;;;;;;;0.88;100.00;102630.28;5060391;28;20520;-70
2024/03/06 03:42:32;;;;;;;7.55;3.22;;;;;;;1.05;100.00;102655.78;5060354;28;20029;-70
2024/03/06 03:44:57;;;;;;;6.05;3.03;;;;;;;1.04;100.00;102656.75;5059036;28;20510;-69
2024/03/06 03:47:23;;;;;;;4.22;2.90;;;;;;;0.85;100.00;102638.41;5060131;28;20403;-70
2024/03/06 03:49:48;;;;;;;5.95;3.38;;;;;;;1.03;100.00;102646.25;5058983;28;20123;-70
2024/03/06 03:52:14;;;;;;;4.07;2.92;;;;;;;0.97;100.00;102646.59;5059902;28;20120;-70
2024/03/06 03:54:40;;;;;;;5.47;3.30;;;;;;;1.00;100.00;102641.13;5059375;28;20031;-70
2024/03/06 03:57:06;;;;;;;5.70;3.47;;;;;;;0.94;100.00;102631.72;5025734;28;20041;-69
2024/03/06 03:59:32;;;;;;;5.97;3.40;;;;;;;1.02;100.00;102655.97;5057541;28;20049;-72
2024/03/06 04:01:57;;;;;;;7.88;3.22;;;;;;;1.02;100.00;102657.78;5058583;28;20090;-69
2024/03/06 04:04:23;;;;;;;5.90;3.20;;;;;;;0.98;100.00;102650.94;5039933;28;20037;-70
2024/03/06 04:06:48;;;;;;;6.60;3.50;;;;;;;0.99;100.00;102665.91;5056015;28;20087;-70
2024/03/06 04:09:14;;;;;;;4.93;3.30;;;;;;;0.85;100.00;102643.72;5057743;28;20093;-71
2024/03/06 04:11:40;;;;;;;9.10;3.80;;;;;;;1.01;100.00;102662.22;5056001;28;20051;-70
2024/03/06 04:14:08;;;;;;;5.93;3.42;;;;;;;1.04;100.00;102663.84;5058222;28;20028;-70
2024/03/06 04:16:34;;;;;;;4.68;3.22;;;;;;;0.82;100.00;102649.19;5059385;28;20507;-71
2024/03/06 04:19:00;;;;;;;7.50;3.13;;;;;;;1.01;100.00;102669.31;5059633;28;20083;-71
2024/03/06 04:21:26;;;;;;;6.28;3.53;;;;;;;1.01;100.00;102664.03;5058868;28;20021;-70
2024/03/06 04:23:51;;;;;;;8.27;3.42;;;;;;;0.97;100.00;102667.81;5059973;28;20529;-70
2024/03/06 04:26:17;;;;;;;7.20;3.22;;;;;;;0.93;100.00;102660.03;5058354;28;20043;-71
2024/03/06 04:28:43;;;;;;;6.70;3.53;;;;;;;0.71;100.00;102641.03;5041652;28;20118;-70
2024/03/06 04:31:09;;;;;;;5.22;3.60;;;;;;;0.77;100.00;102645.97;5059683;28;20059;-70
2024/03/06 04:33:35;;;;;;;7.45;3.53;;;;;;;0.92;100.00;102657.47;5059844;28;20376;-70
2024/03/06 04:36:03;;;;;;;5.93;3.42;;;;;;;0.97;100.00;102671.31;5059593;28;20032;-70
2024/03/06 04:38:29;;;;;;;6.53;2.90;;;;;;;0.78;100.00;102639.72;5058146;28;20095;-70
2024/03/06 04:40:54;;;;;;;5.38;3.10;;;;;;;0.94;100.00;102668.84;5058278;28;20029;-70
2024/03/06 04:43:20;;;;;;;4.90;3.28;;;;;;;0.96;100.00;102666.97;5058008;28;20086;-72
2024/03/06 04:45:45;;;;;;;6.93;3.17;;;;;;;0.90;100.00;102669.97;5057847;28;20055;-71
2024/03/06 04:48:12;;;;;;;7.07;3.50;;;;;;;0.96;100.00;102672.25;5039725;28;20124;-71
2024/03/06 04:50:37;;;;;;;5.47;3.53;;;;;;;0.94;100.00;102679.44;5058042;28;20621;-70
2024/03/06 04:53:02;;;;;;;7.47;3.97;;;;;;;0.85;100.00;102670.22;5057240;28;20104;-70
2024/03/06 04:55:30;;;;;;;7.22;3.40;;;;;;;0.90;100.00;102683.22;5039474;28;20025;-70
2024/03/06 04:57:55;;;;;;;5.50;3.30;;;;;;;0.86;100.00;102681.66;5056211;28;20056;-70
2024/03/06 05:00:21;;;;;;;7.95;3.28;;;;;;;0.55;100.00;102653.47;5055210;28;20025;-71
2024/03/06 05:02:49;;;;;;;5.80;3.80;;;;;;;0.70;100.00;102687.88;5055173;28;20040;-70
2024/03/06 05:05:14;;;;;;;5.30;3.42;;;;;;;0.65;100.00;102673.19;5057546;28;20029;-70
2024/03/06 05:07:40;;;;;;;5.43;3.00;;;;;;;0.75;100.00;102689.41;5057858;28;20105;-71
2024/03/06 05:10:07;;;;;;;9.32;3.72;;;;;;;0.69;100.00;102694.09;5056431;28;20431;-73
2024/03/06 05:12:34;;;;;;;7.05;3.33;;;;;;;0.68;100.00;102694.19;5057505;28;20101;-71
2024/03/06 05:15:00;;;;;;;7.28;3.80;;;;;;;0.72;100.00;102700.19;5056278;28;20053;-71
2024/03/06 05:17:25;;;;;;;6.70;3.50;;;;;;;0.68;100.00;102721.53;5058159;28;20052;-71
2024/03/06 05:19:51;;;;;;;6.75;3.40;;;;;;;0.71;100.00;102715.22;5059634;28;20028;-71
2024/03/06 05:22:18;;;;;;;6.65;3.28;;;;;;;0.69;100.00;102723.25;5058751;28;20245;-71
2024/03/06 05:24:44;;;;;;;4.82;3.05;;;;;;;0.67;100.00;102724.28;5059294;28;20033;-70
2024/03/06 05:27:16;;;;;;;6.95;3.35;;;;;;;0.67;100.00;102722.50;5042906;28;20872;-70
2024/03/06 05:29:42;;;;;;;7.00;3.83;;;;;;;0.56;100.00;102718.75;5060817;28;20025;-71
2024/03/06 05:32:07;;;;;;;7.65;3.80;;;;;;;0.57;100.00;102717.81;5061744;28;20090;-71
2024/03/06 05:34:36;;;;;;;6.30;3.85;;;;;;;0.39;100.00;102702.00;5033773;28;20102;-70
2024/03/06 05:37:05;;;;;;;11.02;3.80;;;;;;;0.61;100.00;102745.84;5068666;28;20039;-71
2024/03/06 05:39:31;;;;;;;8.25;4.03;;;;;;;0.50;100.00;102742.91;5062924;28;20028;-71
2024/03/06 05:42:03;;;;;;;7.15;3.97;;;;;;;0.41;100.00;102733.72;5061184;28;20032;-71
2024/03/06 05:44:30;;;;;;;6.90;3.50;;;;;;;0.32;100.00;102729.75;5060213;28;20036;-71
2024/03/06 05:46:55;;;;;;;8.43;4.13;;;;;;;0.34;100.00;102740.28;5061456;28;20092;-70
2024/03/06 05:49:21;;;;;;;7.50;4.38;;;;;;;0.33;100.00;102752.69;5044979;28;20507;-70
2024/03/06 05:51:46;;;;;;;8.75;4.20;;;;;;;0.33;100.00;102747.38;5061675;28;20033;-73
2024/03/06 05:54:12;;;;;;;8.60;4.35;;;;;;;0.30;100.00;102755.50;5060812;28;20100;-71
2024/03/06 05:56:38;;;;;;;7.70;3.97;;;;;;;0.31;100.00;102751.91;5061365;28;20024;-70
2024/03/06 05:59:07;;;;;;;9.63;4.03;;;;;;;0.32;100.00;102761.53;5043459;28;20049;-74
2024/03/06 06:01:33;;;;;;;9.13;4.32;;;;;;;0.29;100.00;102756.41;5059656;28;20397;-71
2024/03/06 06:04:00;;;;;;;9.18;4.30;;;;;;;0.33;100.00;102760.63;5060157;28;20024;-70
2024/03/06 06:06:25;;;;;;;11.38;4.30;;;;;;;0.38;100.00;102758.56;5059561;28;20388;-71
2024/03/06 06:08:51;;;;;;;8.50;4.13;;;;;;;0.18;100.00;102735.84;5060017;28;20032;-71
2024/03/06 06:11:17;;;;;;;7.93;4.05;;;;;;;0.32;100.00;102758.91;5043724;28;20040;-70
2024/03/06 06:13:43;;;;;;;7.45;3.80;;;;;;;0.34;100.00;102758.81;5060938;28;20025;-71
2024/03/06 06:16:08;;;;;;;11.18;4.28;;;;;;;0.13;100.00;102718.47;5058150;28;20053;-72
2024/03/06 06:18:34;;;;;;;7.68;3.97;;;;;;;0.42;100.00;102767.19;5058776;28;20025;-71
2024/03/06 06:20:59;;;;;;;10.05;3.95;;;;;;;0.40;100.00;102759.34;5058699;28;20032;-70
2024/03/06 06:23:25;;;;;;;8.65;4.07;;;;;;;0.45;100.00;102762.56;5058694;28;20025;-71
2024/03/06 06:25:51;;;;;;;8.52;3.95;;;;;;;0.49;100.00;102779.16;5057326;28;20059;-71
2024/03/06 06:28:16;;;;;;;7.38;3.80;;;;;;;0.46;100.00;102769.59;5058978;28;20028;-71
2024/03/06 06:30:42;;;;;;;7.55;4.05;;;;;;;0.49;100.00;102778.28;5060665;28;20024;-71
2024/03/06 06:33:09;;;;;;;8.68;3.97;;;;;;;0.54;100.00;102776.25;5041288;28;20025;-69
2024/03/06 06:35:35;;;;;;;7.82;3.70;;;;;;;0.53;100.00;102774.53;5058660;28;20037;-69
2024/03/06 06:38:02;;;;;;;5.78;3.13;;;;;;;0.59;100.00;102782.13;5057888;28;20469;-70
2024/03/06 06:40:30;;;;;;;9.13;3.60;;;;;;;0.42;100.00;102746.00;5059037;28;20040;-69
2024/03/06 06:42:55;;;;;;;9.38;3.67;;;;;;;0.53;100.00;102769.22;5066260;28;20029;-70
2024/03/06 06:45:24;;;;;;;6.88;3.95;;;;;;;0.65;100.00;102790.59;5066697;28;20173;-70
2024/03/06 06:47:51;;;;;;;6.57;3.10;;;;;;;0.49;100.00;102757.97;5062869;28;20546;-72
2024/03/06 06:50:17;;;;;;;10.30;3.65;;;;;;;0.70;100.00;102793.88;5061064;28;20024;-72
2024/03/06 06:52:42;;;;;;;7.40;3.00;;;;;;;0.74;100.00;102799.00;5060867;28;20032;-77
2024/03/06 06:55:11;;;;;;;7.03;3.55;;;;;;;0.74;100.00;102794.53;5059936;28;20044;-72
2024/03/06 06:57:37;;;;;;;6.38;3.53;;;;;;;0.82;100.00;102802.91;5052552;28;20048;-73
2024/03/06 07:00:10;;;;;;;9.70;4.10;;;;;;;0.84;100.00;102810.78;5039262;28;20456;-71
2024/03/06 07:02:45;;;;;;;6.90;3.05;;;;;;;0.88;100.00;102812.31;5038541;28;20048;-73
2024/03/06 07:05:11;;;;;;;9.93;3.40;;;;;;;0.77;100.00;102778.47;5035751;28;20029;-71
2024/03/06 07:07:37;;;;;;;7.32;3.35;;;;;;;0.93;100.00;102811.13;5020187;28;20492;-70
2024/03/06 07:10:06;;;;;;;6.20;3.30;;;;;;;0.94;100.00;102820.78;5038234;28;20104;-73
2024/03/06 07:12:32;;;;;;;6.43;2.90;;;;;;;1.02;100.00;102808.88;5037099;28;20050;-72
2024/03/06 07:14:58;;;;;;;6.70;3.38;;;;;;;0.99;100.00;102814.34;5038106;28;20033;-74
2024/03/06 07:17:24;;;;;;;5.43;3.38;;;;;;;0.96;100.00;102814.50;5023783;28;20512;-74
2024/03/06 07:19:50;;;;;;;5.82;3.03;;;;;;;1.01;100.00;102828.38;5039360;28;20060;-74
2024/03/06 07:22:16;;;;;;;6.80;3.25;;;;;;;1.03;100.00;102823.84;5036524;28;20049;-74
2024/03/06 07:24:43;;;;;;;9.57;3.20;;;;;;;0.84;100.00;102798.38;5033938;28;20029;-71
2024/03/06 07:27:09;;;;;;;7.97;3.15;;;;;;;1.05;100.00;102825.44;5035232;28;20025;-74
2024/03/06 07:29:35;;;;;;;5.18;3.00;;;;;;;1.03;100.00;102829.16;5017952;28;20124;-72
2024/03/06 07:32:01;;;;;;;6.95;2.83;;;;;;;0.91;100.00;102806.84;5036380;28;20049;-73
2024/03/06 07:34:28;;;;;;;7.20;3.15;;;;;;;1.09;100.00;102829.66;5034995;28;20794;-76
2024/03/06 07:36:54;;;;;;;9.15;3.63;;;;;;;1.10;100.00;102834.00;5038197;28;20021;-76
2024/03/06 07:39:20;;;;;;;7.15;3.25;;;;;;;1.15;100.00;102831.09;5035337;28;20515;-69
2024/03/06 07:41:46;;;;;;;6.85;3.15;;;;;;;1.06;100.00;102816.59;5034943;28;20034;-71
2024/03/06 07:44:11;;;;;;;5.90;3.10;;;;;;;1.05;100.00;102821.94;5037082;28;20040;-71
2024/03/06 07:46:37;;;;;;;7.53;3.50;;;;;;;1.18;100.00;102836.22;5036333;28;20032;-71
2024/03/06 07:49:03;;;;;;;5.75;3.13;;;;;;;1.29;100.00;102839.13;5035959;28;20029;-71
2024/03/06 07:51:30;;;;;;;7.55;3.50;;;;;;;1.22;100.00;102829.78;5033692;28;20036;-77
2024/03/06 07:53:55;;;;;;;10.48;3.33;;;;;;;1.28;100.00;102832.09;5033396;28;20144;-70
2024/03/06 07:56:21;;;;;;;6.90;3.35;;;;;;;1.28;100.00;102837.38;5035586;28;20053;-70
2024/03/06 07:58:46;;;;;;;6.90;2.90;;;;;;;1.13;100.00;102812.63;5034740;28;20046;-82
2024/03/06 08:01:12;;;;;;;6.30;2.55;;;;;;;1.26;100.00;102852.56;5033730;28;20037;-73
2024/03/06 08:03:40;;;;;;;5.47;2.88;;;;;;;1.34;100.00;102850.31;5034061;28;20407;-77
2024/03/06 08:06:05;;;;;;;6.97;3.13;;;;;;;1.35;100.00;102859.97;5036874;28;20097;-78
2024/03/06 08:08:31;;;;;;;6.47;2.88;;;;;;;1.41;100.00;102854.31;5043614;28;20053;-73
2024/03/06 08:10:57;;;;;;;7.22;2.80;;;;;;;1.17;100.00;102815.97;5034144;28;20021;-81
2024/03/06 08:13:22;;;;;;;6.10;2.63;;;;;;;1.39;100.00;102865.94;5036700;28;20049;-71
2024/03/06 08:15:48;;;;;;;6.00;3.03;;;;;;;1.45;100.00;102867.41;5019654;28;20037;-70
2024/03/06 08:18:14;;;;;;;7.75;2.90;;;;;;;1.38;100.00;102853.63;5035514;28;20045;-76
2024/03/06 08:20:40;;;;;;;5.57;2.65;;;;;;;1.41;100.00;102848.16;5034440;28;20046;-71
2024/03/06 08:23:07;;;;;;;7.00;2.78;;;;;;;1.54;100.00;102872.16;5037635;28;20033;-72
2024/03/06 08:25:32;;;;;;;5.35;2.47;;;;;;;1.54;100.00;102875.66;5037553;28;20030;-72
2024/03/06 08:27:59;;;;;;;8.10;3.15;;;;;;;1.45;100.00;102867.41;5035293;28;20484;-70
2024/03/06 08:30:24;;;;;;;6.43;2.50;;;;;;;1.65;100.00;102880.34;5020532;28;20072;-70
2024/03/06 08:32:50;;;;;;;7.95;3.03;;;;;;;1.63;100.00;102877.78;5037490;28;20033;-70
2024/03/06 08:35:18;;;;;;;7.10;3.08;;;;;;;1.66;100.00;102882.06;5032746;28;20026;-71
2024/03/06 08:37:44;;;;;;;4.88;2.70;;;;;;;1.56;100.00;102862.34;5031726;28;20057;-79
2024/03/06 08:40:14;;;;;;;6.78;2.75;;;;;;;1.67;100.00;102881.13;5032010;28;20032;-75
2024/03/06 08:42:42;;;;;;;5.95;2.72;;;;;;;1.71;100.00;102884.44;5033880;28;20061;-71
2024/03/06 08:45:08;;;;;;;6.18;2.50;;;;;;;1.69;100.00;102884.56;5035965;28;20021;-72
2024/03/06 08:47:34;;;;;;;6.20;2.72;;;;;;;1.57;100.00;102856.06;5052811;28;20045;-69
2024/03/06 08:50:00;;;;;;;7.90;3.13;;;;;;;1.81;100.00;102883.81;5054375;28;20085;-70
2024/03/06 08:52:25;;;;;;;5.47;3.10;;;;;;;1.80;100.00;102887.41;5040246;28;20060;-79
2024/03/06 08:54:50;;;;;;;5.32;2.72;;;;;;;1.88;100.00;102895.75;5035439;28;20082;-71
2024/03/06 08:57:16;;;;;;;6.30;2.70;;;;;;;1.92;100.00;102895.59;5035197;28;20033;-71
2024/03/06 08:59:43;;;;;;;6.28;2.67;;;;;;;1.97;100.00;102888.22;5036662;28;20032;-76
2024/03/06 09:02:19;;;;;;;6.32;2.70;;;;;;;2.01;100.00;102892.38;5035081;28;20072;-75
2024/03/06 09:04:45;;;;;;;6.55;2.75;;;;;;;1.92;100.00;102879.66;5034943;28;20253;-81
2024/03/06 09:07:11;;;;;;;7.68;2.85;;;;;;;2.10;100.00;102905.13;5033377;28;20025;-72
2024/03/06 09:09:38;;;;;;;9.73;2.80;;;;;;;2.06;100.00;102903.59;5033119;28;20052;-81
2024/03/06 09:12:10;;;;;;;4.43;2.83;;;;;;;2.06;100.00;102885.00;5033498;28;20516;-74
2024/03/06 09:14:36;;;;;;;6.07;2.53;;;;;;;1.85;100.00;102826.06;5050252;28;20527;-76
2024/03/06 09:17:03;;;;;;;6.30;2.88;;;;;;;2.35;100.00;102905.34;5035316;28;20114;-82
2024/03/06 09:19:29;;;;;;;6.28;2.55;;;;;;;2.25;100.00;102898.00;5037795;28;20033;-78
2024/03/06 09:21:54;;;;;;;4.35;2.50;;;;;;;2.43;100.00;102906.69;5038853;28;20037;-71
2024/03/06 09:24:22;;;;;;;7.68;2.67;;;;;;;2.56;100.00;102907.63;5040573;28;20048;-72
2024/03/06 09:26:49;;;;;;;10.23;2.55;;;;;;;2.53;100.00;102907.81;5040223;28;20079;-70
2024/03/06 09:29:15;;;;;;;4.80;2.60;;;;;;;2.52;100.00;102908.78;5039813;28;20029;-70
2024/03/06 09:31:41;;;;;;;4.97;2.42;;;;;;;2.54;100.00;102904.19;5040411;28;20018;-73
2024/03/06 09:34:11;;;;;;;7.03;2.70;;;;;;;2.47;100.00;102913.50;5040639;28;20025;-71
2024/03/06 09:36:36;;;;;;;6.57;2.88;;;;;;;2.35;100.00;102875.25;5041812;28;20076;-70
2024/03/06 09:39:04;;;;;;;5.25;2.78;;;;;;;2.57;100.00;102907.53;5056304;28;20030;-70
2024/03/06 09:41:30;;;;;;;5.18;2.72;;;;;;;2.57;100.00;102909.31;5039672;28;20071;-71
2024/03/06 09:43:55;;;;;;;6.97;2.50;;;;;;;2.69;100.00;102903.25;5023121;28;20033;-70
2024/03/06 09:46:21;;;;;;;5.43;2.58;;;;;;;2.58;100.00;102897.75;5055808;28;20058;-70
2024/03/06 09:48:48;;;;;;;6.22;2.25;;;;;;;2.72;100.00;102924.34;5041341;28;20029;-69
2024/03/06 09:51:15;;;;;;;5.88;2.60;;;;;;;2.72;100.00;102916.34;5039647;28;20381;-70
2024/03/06 09:53:43;;;;;;;5.93;2.67;;;;;;;2.77;100.00;102916.91;5041344;28;20415;-71
2024/03/06 09:56:09;;;;;;;5.05;2.33;;;;;;;2.81;100.00;102923.75;5041850;28;20025;-70
2024/03/06 09:58:37;;;;;;;6.00;2.50;;;;;;;2.76;100.00;102919.69;5039130;28;20142;-70
2024/03/06 10:01:07;;;;;;;4.85;2.40;;;;;;;2.74;100.00;102916.25;5039108;28;20045;-70
2024/03/06 10:03:33;;;;;;;5.63;2.65;;;;;;;2.79;100.00;102925.66;5038006;28;20036;-70
2024/03/06 10:05:58;;;;;;;6.90;2.88;;;;;;;2.97;100.00;102931.59;5040254;28;20029;-70
2024/03/06 10:08:26;;;;;;;8.45;2.67;;;;;;;2.93;100.00;102926.59;5042684;28;20033;-70
2024/03/06 10:10:52;;;;;;;8.23;2.58;;;;;;;2.81;100.00;102925.53;5041077;28;20037;-71
2024/03/06 10:13:18;;;;;;;3.88;2.20;;;;;;;2.71;100.00;102905.81;5041665;28;20076;-70
2024/03/06 10:16:01;;;;;;;4.45;2.30;;;;;;;2.73;100.00;102909.22;5041996;28;20025;-70
2024/03/06 10:18:28;;;;;;;3.97;2.30;;;;;;;2.73;100.00;102925.19;5039732;28;20116;-71
2024/03/06 10:20:54;;;;;;;6.35;2.40;;;;;;;2.81;100.00;102928.19;5039816;28;20116;-69
2024/03/06 10:23:20;;;;;;;5.85;2.63;;;;;;;2.79;100.00;102922.16;5039287;28;20108;-70
2024/03/06 10:25:52;;;;;;;5.78;2.53;;;;;;;2.86;100.00;102931.44;5055464;28;20052;-70
2024/03/06 10:28:23;;;;;;;5.97;2.35;;;;;;;2.89;100.00;102930.41;5041221;28;20116;-70
2024/03/06 10:30:50;;;;;;;6.75;2.53;;;;;;;2.87;100.00;102927.81;5038309;28;20049;-70
2024/03/06 10:33:20;;;;;;;13.43;2.45;;;;;;;2.72;100.00;102928.81;5054135;28;20092;-70
2024/03/06 10:35:48;;;;;;;5.93;2.40;;;;;;;2.82;100.00;102935.25;5039466;28;20162;-70
2024/03/06 10:38:14;;;;;;;4.63;2.35;;;;;;;2.81;100.00;102939.72;5039104;28;20029;-70
2024/03/06 10:40:42;;;;;;;6.03;2.22;;;;;;;2.83;100.00;102937.78;5038863;28;20100;-70
2024/03/06 10:43:08;;;;;;;5.18;2.40;;;;;;;2.88;100.00;102945.50;5039177;28;20030;-70
2024/03/06 10:45:50;;;;;;;4.10;2.38;;;;;;;2.99;100.00;102943.00;5036017;28;20045;-71
2024/03/06 10:48:17;;;;;;;7.97;2.90;;;;;;;3.05;100.00;102937.31;5035701;28;20403;-73
2024/03/06 10:50:45;;;;;;;5.18;2.78;;;;;;;2.98;100.00;102937.78;5036431;28;20484;-75
2024/03/06 10:53:12;;;;;;;7.55;2.60;;;;;;;2.92;100.00;102939.03;5038447;28;20033;-71
2024/03/06 10:55:38;;;;;;;6.85;2.28;;;;;;;2.82;100.00;102909.50;5040481;28;20022;-71
2024/03/06 10:58:11;;;;;;;4.38;2.65;;;;;;;3.06;100.00;102930.19;5037801;28;20050;-70
2024/03/06 11:00:48;;;;;;;5.68;2.33;;;;;;;3.06;100.00;102938.16;5037471;28;20022;-71
2024/03/06 11:03:15;;;;;;;4.57;2.60;;;;;;;3.14;100.00;102927.88;5039661;28;20089;-71
2024/03/06 11:05:50;;;;;;;3.65;1.90;;;;;;;3.19;100.00;102927.59;5038629;28;20124;-71
2024/03/06 11:08:16;;;;;;;6.05;2.97;;;;;;;3.12;100.00;102932.44;5035781;28;20698;-74
2024/03/06 11:10:43;;;;;;;4.63;2.00;;;;;;;3.21;100.00;102931.88;5039240;28;20029;-72
2024/03/06 11:13:20;;;;;;;7.85;2.55;;;;;;;3.35;100.00;102933.63;5038468;28;20476;-73
2024/03/06 11:15:56;;;;;;;4.97;2.63;;;;;;;3.28;100.00;102927.00;5038664;28;20030;-72
2024/03/06 11:18:28;;;;;;;5.65;2.20;;;;;;;3.36;100.00;102938.00;5038487;28;20021;-71
2024/03/06 11:21:19;;;;;;;4.82;2.33;;;;;;;3.20;100.00;102905.34;5039142;28;20036;-71